Charlevoix, MI

9:36 PM EST on December 07, 2016 (GMT -0500)
Charlevoix Municipal

Weather History for KCVX - August, 2013

Change the Weather History Date:

Tuesday, August 13, 2013

  Actual Average Record
Temperature  
Mean Temperature 58 °F -  
Max Temperature 61 °F 77 °F 87 °F (2010)
Min Temperature 54 °F 61 °F 54 °F (2013)
Degree Days  
Heating Degree Days 8    
Growing Degree Days 8 (Base 50)    
Moisture  
Dew Point 47 °F    
Average Humidity 67    
Maximum Humidity 77    
Minimum Humidity 55    
Precipitation  
Precipitation 0.00 in - - ()
Sea Level Pressure  
Sea Level Pressure 30.07 in    
Wind  
Wind Speed 14 mph (NNW)    
Max Wind Speed 20 mph    
Max Gust Speed 28 mph    
Visibility 10 miles    
Events      
Averages and records for this station are not official NWS values.
T = Trace of Precipitation, MM = Missing Value Source: NWS Daily Summary

Daily Weather History Graph

Daily Weather History Graph

Search for Another Location

Airport or City:

Trip Planner

Search our weather history database for the weather conditions in past years. The results will help you decide how hot, cold, wet, or windy it might be!

Date:

Astronomy

Aug. 13, 2013 Rise Set
Actual Time 6:40 AM EDT 8:50 PM EDT
Civil Twilight 6:07 AM EDT 9:23 PM EDT
Nautical Twilight 5:27 AM EDT 10:03 PM EDT
Astronomical Twilight 4:42 AM EDT 10:47 PM EDT
Moon 1:56 PM EDT (8/13) No Moon Set
Length of Visible Light 15h 15m
Length of Day
14h 10m
Waxing Crescent, 41% of the Moon is Illuminated
Aug 13
Waxing Crescent
Aug 14
First Quarter
Aug 20
Full
Aug 28
Last Quarter
Sep 5
New

Hourly Weather History & Observations

Time (EDT) Temp. Dew Point Humidity Pressure Visibility Wind Dir Wind Speed Gust Speed Precip Events Conditions
12:15 AM 57.2 °F 50.2 °F 77% 30.00 in 10.0 mi NNW 13.8 mph 20.7 mph N/A   Mostly Cloudy
12:34 AM 57.0 °F 48.9 °F 74% 30.00 in 10.0 mi North 17.3 mph 24.2 mph N/A   Overcast
12:55 AM 57.2 °F 48.9 °F 74% 30.00 in 10.0 mi North 17.3 mph 24.2 mph N/A   Overcast
1:15 AM 57.2 °F 49.1 °F 74% 30.00 in 10.0 mi North 12.7 mph 23.0 mph N/A   Overcast
1:34 AM 57.2 °F 49.1 °F 74% 30.00 in 10.0 mi North 16.1 mph 23.0 mph N/A   Overcast
1:55 AM 57.2 °F 47.8 °F 71% 30.00 in 10.0 mi North 13.8 mph 20.7 mph N/A   Overcast
2:15 AM 56.7 °F 47.7 °F 72% 30.00 in 10.0 mi North 13.8 mph 21.9 mph N/A   Overcast
2:34 AM 56.5 °F 47.8 °F 73% 30.00 in 10.0 mi North 13.8 mph 18.4 mph N/A   Mostly Cloudy
2:55 AM 56.3 °F 48.4 °F 75% 30.00 in 10.0 mi North 12.7 mph 18.4 mph N/A   Mostly Cloudy
3:14 AM 55.9 °F 47.7 °F 74% 30.00 in 10.0 mi North 10.4 mph 20.7 mph N/A   Mostly Cloudy
3:35 AM 55.4 °F 47.1 °F 74% 30.00 in 10.0 mi North 18.4 mph - N/A   Mostly Cloudy
3:54 AM 55.4 °F 46.8 °F 73% 30.00 in 10.0 mi North 16.1 mph 21.9 mph N/A   Scattered Clouds
4:15 AM 54.9 °F 46.6 °F 74% 30.00 in 10.0 mi North 13.8 mph 20.7 mph N/A   Scattered Clouds
4:35 AM 54.9 °F 47.1 °F 75% 30.01 in 10.0 mi North 12.7 mph 19.6 mph N/A   Scattered Clouds
4:54 AM 54.9 °F 46.0 °F 72% 30.01 in 10.0 mi North 17.3 mph 24.2 mph N/A   Scattered Clouds
5:15 AM 54.5 °F 46.4 °F 74% 30.02 in 10.0 mi North 15.0 mph 20.7 mph N/A   Mostly Cloudy
5:35 AM 54.5 °F 46.0 °F 73% 30.03 in 10.0 mi North 19.6 mph 25.3 mph N/A   Mostly Cloudy
5:55 AM 54.7 °F 46.2 °F 73% 30.03 in 10.0 mi North 13.8 mph 24.2 mph N/A   Mostly Cloudy
6:15 AM 54.9 °F 47.1 °F 75% 30.03 in 10.0 mi North 16.1 mph 21.9 mph N/A   Mostly Cloudy
6:35 AM 54.9 °F 46.8 °F 74% 30.03 in 10.0 mi North 16.1 mph 20.7 mph N/A   Mostly Cloudy
6:55 AM 54.9 °F 45.1 °F 70% 30.03 in 10.0 mi North 12.7 mph 24.2 mph N/A   Mostly Cloudy
7:15 AM 54.9 °F 45.1 °F 70% 30.03 in 10.0 mi North 15.0 mph 23.0 mph N/A   Scattered Clouds
7:34 AM 55.6 °F 45.9 °F 70% 30.04 in 10.0 mi North 16.1 mph 23.0 mph N/A   Scattered Clouds
7:55 AM 55.9 °F 45.1 °F 67% 30.04 in 10.0 mi North 13.8 mph 21.9 mph N/A   Mostly Cloudy
8:15 AM 56.5 °F 45.3 °F 66% 30.04 in 10.0 mi NNW 15.0 mph 23.0 mph N/A   Mostly Cloudy
8:34 AM 56.3 °F 44.4 °F 64% 30.05 in 10.0 mi North 18.4 mph 27.6 mph N/A   Scattered Clouds
8:55 AM 57.2 °F 45.9 °F 66% 30.05 in 10.0 mi NNW 13.8 mph 21.9 mph N/A   Scattered Clouds
9:15 AM 56.7 °F 44.8 °F 64% 30.05 in 10.0 mi North 18.4 mph 23.0 mph N/A   Scattered Clouds
9:34 AM 57.7 °F 46.0 °F 65% 30.05 in 10.0 mi North 12.7 mph 20.7 mph N/A   Scattered Clouds
9:55 AM 58.5 °F 45.9 °F 63% 30.06 in 10.0 mi North 15.0 mph 20.7 mph N/A   Scattered Clouds
10:15 AM 58.8 °F 45.7 °F 62% 30.07 in 10.0 mi NNW 10.4 mph 19.6 mph N/A   Mostly Cloudy
10:34 AM 58.3 °F 45.9 °F 63% 30.07 in 10.0 mi NNW 10.4 mph - N/A   Mostly Cloudy
10:55 AM 58.6 °F 45.3 °F 61% 30.07 in 10.0 mi NNW 13.8 mph 19.6 mph N/A   Mostly Cloudy
11:14 AM 58.6 °F 46.0 °F 63% 30.07 in 10.0 mi NNW 13.8 mph 20.7 mph N/A   Mostly Cloudy
11:35 AM 59.0 °F 46.6 °F 63% 30.08 in 10.0 mi North 10.4 mph 16.1 mph N/A   Scattered Clouds
11:55 AM 59.2 °F 45.9 °F 61% 30.08 in 10.0 mi North 11.5 mph - N/A   Scattered Clouds
12:14 PM 60.3 °F 46.9 °F 61% 30.08 in 10.0 mi NNW 12.7 mph 20.7 mph N/A   Scattered Clouds
12:35 PM 60.6 °F 46.9 °F 61% 30.08 in 10.0 mi NNW 13.8 mph 18.4 mph N/A   Scattered Clouds
12:55 PM 59.7 °F 47.3 °F 63% 30.08 in 10.0 mi NNW 10.4 mph 18.4 mph N/A   Scattered Clouds
1:15 PM 60.8 °F 46.8 °F 60% 30.08 in 10.0 mi NNW 12.7 mph 21.9 mph N/A   Scattered Clouds
1:35 PM 61.9 °F 46.2 °F 56% 30.08 in 10.0 mi NNW 12.7 mph 19.6 mph N/A   Mostly Cloudy
1:54 PM 60.4 °F 46.2 °F 59% 30.08 in 10.0 mi North 13.8 mph 19.6 mph N/A   Overcast
2:15 PM 59.7 °F 46.2 °F 61% 30.08 in 10.0 mi North 13.8 mph 17.3 mph N/A   Mostly Cloudy
2:35 PM 60.6 °F 45.3 °F 57% 30.08 in 10.0 mi North 12.7 mph 18.4 mph N/A   Overcast
2:54 PM 60.4 °F 45.1 °F 57% 30.08 in 10.0 mi NNW 15.0 mph 20.7 mph N/A   Overcast
3:15 PM 59.9 °F 45.7 °F 59% 30.09 in 10.0 mi North 17.3 mph 21.9 mph N/A   Overcast
3:35 PM 60.3 °F 45.3 °F 58% 30.09 in 10.0 mi NNW 13.8 mph 23.0 mph N/A   Overcast
3:54 PM 59.7 °F 45.1 °F 59% 30.09 in 10.0 mi NNW 13.8 mph 25.3 mph N/A   Overcast
4:15 PM 59.5 °F 44.6 °F 58% 30.09 in 10.0 mi NNW 16.1 mph 24.2 mph N/A   Overcast
4:35 PM 59.4 °F 44.4 °F 58% 30.10 in 10.0 mi NNW 15.0 mph 23.0 mph N/A   Overcast
4:54 PM 59.4 °F 43.3 °F 55% 30.10 in 10.0 mi NNW 19.6 mph 26.5 mph N/A   Overcast
5:15 PM 58.8 °F 45.3 °F 61% 30.10 in 10.0 mi North 17.3 mph 25.3 mph N/A   Overcast
5:35 PM 59.0 °F 45.1 °F 60% 30.10 in 10.0 mi North 19.6 mph 27.6 mph N/A   Overcast
5:55 PM 59.2 °F 46.4 °F 63% 30.10 in 10.0 mi NNW 13.8 mph 23.0 mph N/A   Overcast
6:15 PM 58.3 °F 45.7 °F 63% 30.10 in 10.0 mi NNW 13.8 mph 24.2 mph N/A   Overcast
6:34 PM 58.1 °F 47.3 °F 67% 30.11 in 10.0 mi North 11.5 mph 23.0 mph N/A   Overcast
6:55 PM 58.1 °F 46.9 °F 66% 30.12 in 10.0 mi North 12.7 mph 21.9 mph N/A   Overcast
7:15 PM 58.1 °F 47.1 °F 67% 30.11 in 10.0 mi North 16.1 mph 21.9 mph N/A   Overcast
7:35 PM 58.1 °F 46.8 °F 66% 30.12 in 10.0 mi North 13.8 mph 19.6 mph N/A   Overcast
7:55 PM 58.5 °F 46.8 °F 65% 30.12 in 10.0 mi NNW 13.8 mph 19.6 mph N/A   Overcast
8:14 PM 58.3 °F 46.6 °F 65% 30.12 in 10.0 mi NNW 11.5 mph 20.7 mph N/A   Overcast
8:35 PM 58.3 °F 47.3 °F 67% 30.12 in 10.0 mi NNW 10.4 mph 17.3 mph N/A   Overcast
8:55 PM 58.5 °F 47.7 °F 67% 30.12 in 10.0 mi North 11.5 mph 19.6 mph N/A   Overcast
9:14 PM 58.6 °F 47.7 °F 67% 30.12 in 10.0 mi NNW 11.5 mph 21.9 mph N/A   Overcast
9:35 PM 58.6 °F 47.3 °F 66% 30.13 in 10.0 mi North 12.7 mph 25.3 mph N/A   Overcast
9:55 PM 58.5 °F 47.7 °F 67% 30.13 in 10.0 mi North 15.0 mph 20.7 mph N/A   Overcast
10:14 PM 58.5 °F 47.7 °F 67% 30.14 in 10.0 mi North 10.4 mph 23.0 mph N/A   Overcast
10:35 PM 57.7 °F 48.2 °F 70% 30.14 in 10.0 mi NNW 12.7 mph 23.0 mph N/A   Mostly Cloudy
10:55 PM 57.4 °F 48.0 °F 71% 30.14 in 10.0 mi NNW 11.5 mph 18.4 mph N/A   Mostly Cloudy
11:14 PM 57.6 °F 48.4 °F 71% 30.14 in 10.0 mi North 15.0 mph 21.9 mph N/A   Mostly Cloudy
11:35 PM 57.9 °F 49.5 °F 73% 30.14 in 10.0 mi NNW 12.7 mph 19.6 mph N/A   Overcast
11:55 PM 57.6 °F 49.3 °F 74% 30.15 in 10.0 mi NNW 12.7 mph 21.9 mph N/A   Mostly Cloudy